createdAt,value
2019-05-30T00:00:03.695Z,42.57
2019-05-30T00:02:16.575Z,43.09
2019-05-30T00:04:42.906Z,45.48
2019-05-30T00:07:11.069Z,45.12
2019-05-30T00:09:37.135Z,43.92
2019-05-30T00:12:04.884Z,42.85
2019-05-30T00:14:31.420Z,42.03
2019-05-30T00:16:58.772Z,44.00
2019-05-30T00:19:25.186Z,42.52
2019-05-30T00:21:51.693Z,42.03
2019-05-30T00:24:17.875Z,43.01
2019-05-30T00:26:44.085Z,42.92
2019-05-30T00:29:10.248Z,41.93
2019-05-30T00:31:36.427Z,42.34
2019-05-30T00:34:04.095Z,44.67
2019-05-30T00:36:30.447Z,44.24
2019-05-30T00:38:57.640Z,44.74
2019-05-30T00:41:24.121Z,43.57
2019-05-30T00:43:50.383Z,41.40
2019-05-30T00:46:16.676Z,42.25
2019-05-30T00:48:42.892Z,43.80
2019-05-30T00:51:09.056Z,43.35
2019-05-30T00:53:35.393Z,43.76
2019-05-30T00:56:03.017Z,42.28
2019-05-30T00:58:29.460Z,41.61
2019-05-30T01:00:56.747Z,41.55
2019-05-30T01:03:23.233Z,41.28
2019-05-30T01:05:49.419Z,41.00
2019-05-30T01:08:15.587Z,41.23
2019-05-30T01:10:41.798Z,40.28
2019-05-30T01:13:08.066Z,41.59
2019-05-30T01:15:34.224Z,41.80
2019-05-30T01:18:01.030Z,40.72
2019-05-30T01:20:27.410Z,39.93
2019-05-30T01:22:53.597Z,40.22
2019-05-30T01:25:19.759Z,39.88
2019-05-30T01:27:45.942Z,40.00
2019-05-30T01:30:13.516Z,39.18
2019-05-30T01:32:39.742Z,40.76
2019-05-30T01:35:06.330Z,39.82
2019-05-30T01:37:32.495Z,40.48
2019-05-30T01:39:59.771Z,41.23
2019-05-30T01:42:26.093Z,40.83
2019-05-30T01:44:52.256Z,40.67
2019-05-30T01:47:18.481Z,40.89
2019-05-30T01:49:44.736Z,40.74
2019-05-30T01:52:10.911Z,40.01
2019-05-30T01:54:38.845Z,40.77
2019-05-30T01:57:05.003Z,41.24
2019-05-30T01:59:31.175Z,40.30
2019-05-30T02:01:58.763Z,40.24
2019-05-30T02:04:25.297Z,39.86
2019-05-30T02:06:51.457Z,39.62
2019-05-30T02:09:17.671Z,39.24
2019-05-30T02:11:43.829Z,39.06
2019-05-30T02:14:10.115Z,38.89
2019-05-30T02:16:36.328Z,39.08
2019-05-30T02:19:03.619Z,39.45
2019-05-30T02:21:30.160Z,40.33
2019-05-30T02:23:56.346Z,40.30
2019-05-30T02:26:22.520Z,41.57
2019-05-30T02:28:48.674Z,41.58
2019-05-30T02:31:14.911Z,41.00
2019-05-30T02:33:41.098Z,41.72
2019-05-30T02:36:08.451Z,42.30
2019-05-30T02:38:35.379Z,41.73
2019-05-30T02:41:03.228Z,40.53
2019-05-30T02:43:29.648Z,42.60
2019-05-30T02:45:55.850Z,43.38
2019-05-30T02:48:22.173Z,41.86
2019-05-30T02:50:48.438Z,41.01
2019-05-30T02:53:14.626Z,40.71
2019-05-30T02:55:41.616Z,41.21
2019-05-30T02:58:08.594Z,40.83
2019-05-30T03:00:36.310Z,40.95
2019-05-30T03:03:03.976Z,40.87
2019-05-30T03:05:31.407Z,40.89
2019-05-30T03:07:57.634Z,40.08
2019-05-30T03:10:23.778Z,39.92
2019-05-30T03:12:49.938Z,39.17
2019-05-30T03:15:17.064Z,39.38
2019-05-30T03:17:43.235Z,39.61
2019-05-30T03:20:18.835Z,41.54
2019-05-30T03:22:38.305Z,41.19
2019-05-30T03:25:05.638Z,41.42
2019-05-30T03:27:32.731Z,40.32
2019-05-30T03:29:59.013Z,40.13
2019-05-30T03:34:53.288Z,38.82
2019-05-30T03:37:28.836Z,35.42
2019-05-30T03:39:47.565Z,33.81
2019-05-30T03:42:15.813Z,33.22
2019-05-30T03:44:41.847Z,31.29
2019-05-30T03:47:11.762Z,29.94
2019-05-30T03:49:42.566Z,30.30
2019-05-30T03:52:14.501Z,30.11
2019-05-30T03:54:40.535Z,30.38
2019-05-30T03:57:16.413Z,32.40
2019-05-30T03:59:46.321Z,32.52
2019-05-30T04:02:21.924Z,33.83
2019-05-30T04:04:57.707Z,34.88
2019-05-30T04:07:27.013Z,33.98
2019-05-30T04:09:55.895Z,35.80
2019-05-30T04:12:43.994Z,36.63
2019-05-30T04:15:28.904Z,36.84
2019-05-30T04:17:55.126Z,35.29
2019-05-30T04:20:23.186Z,35.17
2019-05-30T04:22:49.317Z,34.62
2019-05-30T04:25:16.727Z,33.49
2019-05-30T04:27:43.194Z,32.58
2019-05-30T04:30:10.025Z,32.69
2019-05-30T04:32:36.485Z,33.03
2019-05-30T04:35:03.940Z,33.56
2019-05-30T04:37:30.100Z,33.13
2019-05-30T04:39:56.307Z,33.83
2019-05-30T04:42:22.492Z,34.05
2019-05-30T04:44:48.647Z,35.08
2019-05-30T04:47:16.087Z,35.72
2019-05-30T04:49:42.535Z,36.33
2019-05-30T04:52:12.043Z,35.96
2019-05-30T04:54:36.821Z,38.36
2019-05-30T04:57:03.108Z,38.82
2019-05-30T04:59:29.257Z,40.32
2019-05-30T05:01:55.463Z,40.43
2019-05-30T05:04:21.943Z,40.60
2019-05-30T05:06:48.400Z,40.90
2019-05-30T05:09:16.057Z,40.86
2019-05-30T05:11:42.497Z,41.90
2019-05-30T05:14:08.661Z,42.91
2019-05-30T05:16:36.476Z,44.35
2019-05-30T05:19:02.934Z,41.53
2019-05-30T05:21:29.104Z,40.24
2019-05-30T05:23:55.293Z,35.55
2019-05-30T05:26:23.635Z,36.59
2019-05-30T05:28:49.596Z,34.84
2019-05-30T05:31:16.456Z,34.02
2019-05-30T05:33:55.789Z,35.21
2019-05-30T05:36:10.915Z,36.71
2019-05-30T05:38:37.135Z,36.25
2019-05-30T05:41:03.314Z,35.49
2019-05-30T05:43:29.462Z,36.83
2019-05-30T05:45:55.667Z,36.52
2019-05-30T05:48:22.609Z,36.82
2019-05-30T05:50:49.176Z,34.74
2019-05-30T05:53:16.541Z,32.87
2019-05-30T05:55:42.972Z,33.33
2019-05-30T05:58:09.125Z,33.38
2019-05-30T06:00:35.356Z,29.76
2019-05-30T06:03:01.631Z,27.70
2019-05-30T06:05:28.460Z,27.00
2019-05-30T06:07:54.809Z,27.07
2019-05-30T06:10:21.755Z,26.47
2019-05-30T06:12:48.141Z,24.98
2019-05-30T06:15:14.737Z,24.04
2019-05-30T06:17:40.934Z,26.86
2019-05-30T06:20:07.996Z,27.61
2019-05-30T06:22:34.202Z,26.52
2019-05-30T06:25:01.747Z,26.96
2019-05-30T06:27:28.138Z,24.98
2019-05-30T06:29:54.380Z,22.98
2019-05-30T06:32:20.892Z,21.01
2019-05-30T06:34:47.380Z,23.12
2019-05-30T06:37:13.724Z,23.12
2019-05-30T06:39:39.963Z,23.72
2019-05-30T06:42:06.152Z,23.72
2019-05-30T06:44:32.355Z,23.60
2019-05-30T06:46:58.554Z,22.81
2019-05-30T06:49:25.143Z,23.07
2019-05-30T06:51:51.340Z,25.71
2019-05-30T06:54:17.539Z,29.01
2019-05-30T06:56:44.737Z,30.55
2019-05-30T06:59:11.307Z,29.76
2019-05-30T07:01:37.530Z,30.92
2019-05-30T07:04:03.975Z,30.68
2019-05-30T07:06:31.640Z,28.82
2019-05-30T07:08:58.610Z,27.46
2019-05-30T07:11:24.827Z,27.13
2019-05-30T07:13:51.071Z,26.62
2019-05-30T07:16:17.251Z,27.06
2019-05-30T07:18:43.450Z,24.76
2019-05-30T07:21:09.645Z,22.93
2019-05-30T07:23:39.049Z,22.68
2019-05-30T07:26:03.970Z,22.53
2019-05-30T07:28:30.241Z,23.94
2019-05-30T07:30:56.465Z,25.77
2019-05-30T07:33:23.900Z,26.23
2019-05-30T07:35:50.464Z,28.46
2019-05-30T07:38:16.637Z,28.46
2019-05-30T07:40:42.932Z,29.50
2019-05-30T07:43:09.123Z,28.26
2019-05-30T07:45:35.313Z,27.12
2019-05-30T07:48:01.481Z,28.36
2019-05-30T07:50:28.394Z,29.29
2019-05-30T07:52:54.847Z,27.94
2019-05-30T07:55:21.046Z,26.13
2019-05-30T07:57:47.272Z,24.36
2019-05-30T08:00:14.757Z,26.78
2019-05-30T08:02:42.005Z,25.50
2019-05-30T08:05:22.709Z,23.71
2019-05-30T08:07:36.856Z,21.78
2019-05-30T08:10:05.644Z,20.42
2019-05-30T08:12:32.102Z,21.33
2019-05-30T08:14:58.325Z,22.02
2019-05-30T08:17:24.513Z,22.70
2019-05-30T08:19:51.023Z,21.87
2019-05-30T08:22:17.305Z,23.03
2019-05-30T08:24:43.561Z,24.31
2019-05-30T08:27:09.761Z,24.26
2019-05-30T08:29:36.451Z,23.75
2019-05-30T08:32:02.950Z,25.95
2019-05-30T08:34:30.459Z,27.23
2019-05-30T08:36:56.710Z,27.14
2019-05-30T08:39:22.904Z,27.74
2019-05-30T08:41:49.128Z,27.29
2019-05-30T08:44:15.432Z,25.80
2019-05-30T08:46:41.621Z,24.75
2019-05-30T08:49:07.817Z,26.32
2019-05-30T08:51:34.186Z,26.11
2019-05-30T08:54:00.582Z,27.88
2019-05-30T08:56:28.547Z,27.88
2019-05-30T08:58:55.082Z,26.65
2019-05-30T09:01:21.272Z,25.47
2019-05-30T09:03:47.522Z,24.74
2019-05-30T09:06:13.738Z,22.70
2019-05-30T09:08:40.127Z,23.74
2019-05-30T09:11:06.373Z,22.23
2019-05-30T09:13:32.532Z,24.37
2019-05-30T09:15:58.744Z,25.09
2019-05-30T09:18:25.031Z,25.20
2019-05-30T09:20:51.196Z,26.19
2019-05-30T09:23:17.372Z,27.70
2019-05-30T09:25:46.875Z,25.53
2019-05-30T09:28:12.231Z,23.41
2019-05-30T09:30:39.884Z,22.67
2019-05-30T09:33:06.604Z,23.00
2019-05-30T09:35:32.776Z,22.67
2019-05-30T09:37:59.085Z,21.29
2019-05-30T09:40:26.170Z,23.57
2019-05-30T09:42:52.336Z,22.69
2019-05-30T09:45:19.431Z,23.42
2019-05-30T09:47:47.129Z,23.76
2019-05-30T09:50:13.881Z,21.13
2019-05-30T09:52:41.652Z,20.30
2019-05-30T09:55:08.881Z,19.21
2019-05-30T09:57:35.060Z,20.60
2019-05-30T10:00:01.245Z,22.86
2019-05-30T10:02:27.440Z,21.82
2019-05-30T10:04:53.647Z,22.33
2019-05-30T10:07:19.836Z,23.66
2019-05-30T10:09:47.146Z,23.72
2019-05-30T10:12:13.525Z,25.42
2019-05-30T10:14:39.694Z,26.46
2019-05-30T10:17:05.949Z,27.62
2019-05-30T10:19:32.115Z,27.19
2019-05-30T10:21:58.312Z,27.02
2019-05-30T10:24:24.522Z,26.97
2019-05-30T10:26:51.132Z,29.07
2019-05-30T10:29:17.350Z,28.72
2019-05-30T10:31:44.903Z,31.20
2019-05-30T10:34:11.256Z,28.14
2019-05-30T10:36:44.372Z,26.52
2019-05-30T10:39:06.540Z,25.35
2019-05-30T10:41:32.705Z,25.35
2019-05-30T10:43:58.874Z,25.04
2019-05-30T10:46:25.100Z,26.60
2019-05-30T10:48:52.786Z,27.62
2019-05-30T10:51:19.121Z,28.87
2019-05-30T10:53:47.071Z,27.25
2019-05-30T10:56:13.528Z,28.01
2019-05-30T10:58:39.910Z,26.35
2019-05-30T11:01:06.308Z,28.51
2019-05-30T11:03:32.466Z,28.99
2019-05-30T11:06:28.218Z,27.73
2019-05-30T11:08:56.972Z,27.71
2019-05-30T11:11:23.286Z,27.71
2019-05-30T11:13:49.484Z,27.63
2019-05-30T11:16:15.660Z,27.82
2019-05-30T11:18:41.818Z,27.69
2019-05-30T11:21:08.044Z,26.14
2019-05-30T11:23:34.235Z,24.67
2019-05-30T11:26:00.410Z,24.67
2019-05-30T11:28:26.711Z,23.85
2019-05-30T11:30:52.901Z,25.37
2019-05-30T11:33:19.087Z,27.99
2019-05-30T11:35:45.293Z,28.27
2019-05-30T11:38:11.489Z,27.01
2019-05-30T11:40:38.871Z,25.96
2019-05-30T11:43:05.076Z,25.96
2019-05-30T11:45:31.263Z,25.24
2019-05-30T11:47:58.043Z,26.64
2019-05-30T11:50:25.162Z,27.84
2019-05-30T11:52:51.710Z,27.84
2019-05-30T11:55:18.109Z,26.11
2019-05-30T11:57:44.321Z,29.32
2019-05-30T12:00:12.421Z,29.32
2019-05-30T12:02:38.577Z,29.51
2019-05-30T12:05:05.764Z,31.39
2019-05-30T12:07:36.168Z,29.48
2019-05-30T12:10:01.102Z,31.23
2019-05-30T12:12:27.653Z,30.55
2019-05-30T12:14:55.186Z,29.63
2019-05-30T12:17:21.503Z,29.98
2019-05-30T12:19:47.708Z,29.96
2019-05-30T12:22:13.881Z,30.76
2019-05-30T12:24:40.076Z,31.36
2019-05-30T12:27:06.448Z,31.62
2019-05-30T12:29:32.629Z,30.96
2019-05-30T12:32:00.682Z,30.42
2019-05-30T12:34:26.980Z,30.98
2019-05-30T12:36:54.272Z,31.48
2019-05-30T12:39:20.620Z,31.87
2019-05-30T12:41:46.817Z,33.37
2019-05-30T12:44:12.986Z,32.72
2019-05-30T12:46:39.154Z,30.68
2019-05-30T12:49:05.340Z,28.54
2019-05-30T12:51:31.503Z,28.12
2019-05-30T12:53:58.457Z,29.85
2019-05-30T12:56:24.898Z,30.42
2019-05-30T12:58:51.074Z,28.65
2019-05-30T13:01:17.254Z,29.28
2019-05-30T13:03:43.443Z,28.79
2019-05-30T13:06:09.614Z,28.19
2019-05-30T13:08:35.802Z,26.80
2019-05-30T13:11:02.058Z,26.92
2019-05-30T13:13:28.212Z,26.78
2019-05-30T13:15:54.667Z,26.85
2019-05-30T13:18:20.893Z,26.25
2019-05-30T13:20:47.077Z,25.71
2019-05-30T13:23:13.250Z,25.71
2019-05-30T13:25:39.458Z,25.66
2019-05-30T13:28:08.413Z,25.15
2019-05-30T13:30:33.728Z,24.68
2019-05-30T13:33:00.846Z,23.40
2019-05-30T13:35:27.286Z,23.59
2019-05-30T13:37:53.469Z,22.29
2019-05-30T13:40:25.364Z,23.63
2019-05-30T13:42:48.629Z,24.19
2019-05-30T13:45:15.019Z,24.01
2019-05-30T13:47:41.316Z,23.50
2019-05-30T13:50:13.033Z,25.12
2019-05-30T13:52:37.593Z,22.66
2019-05-30T13:55:08.563Z,23.82
2019-05-30T13:57:36.034Z,24.34
2019-05-30T14:00:06.078Z,25.09
2019-05-30T14:02:32.527Z,26.58
2019-05-30T14:04:59.909Z,24.17
2019-05-30T14:07:26.415Z,23.83
2019-05-30T14:09:52.778Z,24.08
2019-05-30T14:12:18.990Z,26.45
2019-05-30T14:14:45.151Z,26.55
2019-05-30T14:17:13.607Z,26.55
2019-05-30T14:19:39.570Z,27.76
2019-05-30T14:22:05.758Z,28.30
2019-05-30T14:24:31.971Z,29.27
2019-05-30T14:26:58.123Z,28.95
2019-05-30T14:29:24.277Z,27.76
2019-05-30T14:31:50.487Z,27.63
2019-05-30T14:34:16.653Z,27.00
2019-05-30T14:36:42.831Z,26.41
2019-05-30T14:39:09.196Z,26.83
2019-05-30T14:41:35.332Z,25.89
2019-05-30T14:44:01.523Z,24.17
2019-05-30T14:46:27.724Z,25.95
2019-05-30T14:48:53.893Z,25.95
2019-05-30T14:51:20.080Z,25.85
2019-05-30T14:53:46.272Z,26.68
2019-05-30T14:56:13.497Z,24.96
2019-05-30T14:58:40.070Z,24.96
2019-05-30T15:01:07.140Z,24.57
2019-05-30T15:03:33.833Z,24.19
2019-05-30T15:06:00.029Z,25.06
2019-05-30T15:08:26.248Z,26.95
2019-05-30T15:10:52.478Z,26.23
2019-05-30T15:13:18.655Z,26.23
2019-05-30T15:15:44.845Z,26.48
2019-05-30T15:18:11.421Z,26.60
2019-05-30T15:20:37.798Z,26.20
2019-05-30T15:23:04.018Z,26.24
2019-05-30T15:25:30.171Z,26.72
2019-05-30T15:27:56.372Z,26.41
2019-05-30T15:30:22.685Z,27.42
2019-05-30T15:32:48.843Z,27.09
2019-05-30T15:35:15.665Z,27.36
2019-05-30T15:37:42.367Z,27.37
2019-05-30T15:40:09.566Z,27.51
2019-05-30T15:42:36.884Z,27.48
2019-05-30T15:45:07.906Z,27.11
2019-05-30T15:47:34.248Z,26.51
2019-05-30T15:50:00.409Z,26.27
2019-05-30T15:52:26.640Z,26.78
2019-05-30T15:54:53.755Z,26.96
2019-05-30T15:57:19.927Z,26.36
2019-05-30T15:59:46.109Z,25.89
2019-05-30T16:02:12.313Z,25.43
2019-05-30T16:04:38.472Z,25.43
2019-05-30T16:07:04.782Z,26.37
2019-05-30T16:09:46.058Z,27.06
2019-05-30T16:11:59.028Z,28.72
2019-05-30T16:14:25.241Z,29.02
2019-05-30T16:16:51.420Z,27.88
2019-05-30T16:19:23.283Z,29.08
2019-05-30T16:21:45.668Z,29.12
2019-05-30T16:24:12.400Z,28.74
2019-05-30T16:26:38.820Z,28.93
2019-05-30T16:29:05.016Z,28.61
2019-05-30T16:31:31.197Z,28.70
2019-05-30T16:33:57.352Z,28.21
2019-05-30T16:36:23.581Z,28.51
2019-05-30T16:38:49.753Z,29.17
2019-05-30T16:41:16.234Z,28.98
2019-05-30T16:43:42.646Z,28.61
2019-05-30T16:46:08.828Z,28.52
2019-05-30T16:48:35.006Z,28.19
2019-05-30T16:51:01.321Z,28.00
2019-05-30T16:53:27.598Z,27.40
2019-05-30T16:55:53.765Z,28.42
2019-05-30T16:58:20.397Z,28.10
2019-05-30T17:00:47.814Z,28.05
2019-05-30T17:03:13.986Z,27.59
2019-05-30T17:05:40.299Z,27.66
2019-05-30T17:08:06.455Z,27.17
2019-05-30T17:10:33.409Z,27.26
2019-05-30T17:12:59.876Z,27.86
2019-05-30T17:15:26.099Z,27.55
2019-05-30T17:17:52.311Z,28.65
2019-05-30T17:20:18.912Z,28.66
2019-05-30T17:22:46.764Z,28.29
2019-05-30T17:25:12.957Z,27.52
2019-05-30T17:27:39.153Z,28.27
2019-05-30T17:30:06.649Z,28.98
2019-05-30T17:32:32.803Z,29.65
2019-05-30T17:34:58.991Z,30.22
2019-05-30T17:37:26.431Z,31.61
2019-05-30T17:39:52.856Z,32.21
2019-05-30T17:42:19.069Z,33.40
2019-05-30T17:44:45.420Z,33.73
2019-05-30T17:47:11.612Z,33.48
2019-05-30T17:49:37.796Z,34.00
2019-05-30T17:52:05.710Z,33.51
2019-05-30T17:54:31.883Z,33.52
2019-05-30T17:56:58.079Z,34.21
2019-05-30T17:59:24.382Z,34.76
2019-05-30T18:01:50.723Z,34.28
2019-05-30T18:04:16.941Z,35.24
2019-05-30T18:06:43.105Z,35.51
2019-05-30T18:09:09.396Z,35.28
2019-05-30T18:11:35.607Z,34.88
2019-05-30T18:14:01.912Z,34.56
2019-05-30T18:16:29.265Z,34.90
2019-05-30T18:18:55.507Z,35.20
2019-05-30T18:21:21.682Z,35.46
2019-05-30T18:23:47.877Z,35.96
2019-05-30T18:26:16.018Z,36.01
2019-05-30T18:28:42.182Z,36.25
2019-05-30T18:31:08.363Z,35.44
2019-05-30T18:33:34.681Z,35.16
2019-05-30T18:36:01.058Z,35.21
2019-05-30T18:38:28.330Z,35.24
2019-05-30T18:41:10.203Z,35.52
2019-05-30T18:43:22.833Z,35.55
2019-05-30T18:45:49.023Z,34.79
2019-05-30T18:48:15.231Z,34.62
2019-05-30T18:50:41.421Z,34.06
2019-05-30T18:53:08.319Z,33.73
2019-05-30T18:55:34.523Z,34.49
2019-05-30T18:58:00.683Z,34.83
2019-05-30T19:00:29.063Z,33.98
2019-05-30T19:02:55.540Z,33.58
2019-05-30T19:05:21.698Z,33.42
2019-05-30T19:07:47.888Z,33.96
2019-05-30T19:10:14.184Z,33.14
2019-05-30T19:12:40.356Z,33.26
2019-05-30T19:15:07.448Z,32.81
2019-05-30T19:17:33.788Z,32.41
2019-05-30T19:19:59.912Z,32.61
2019-05-30T19:22:26.073Z,33.55
2019-05-30T19:24:52.383Z,33.15
2019-05-30T19:27:18.541Z,32.78
2019-05-30T19:29:44.720Z,32.68
2019-05-30T19:32:11.283Z,32.32
2019-05-30T19:34:37.446Z,32.54
2019-05-30T19:37:03.607Z,33.75
2019-05-30T19:39:29.823Z,33.86
2019-05-30T19:41:57.570Z,33.59
2019-05-30T19:44:24.069Z,33.12
2019-05-30T19:46:50.279Z,32.62
2019-05-30T19:49:16.432Z,32.66
2019-05-30T19:51:42.596Z,32.48
2019-05-30T19:54:08.817Z,32.42
2019-05-30T19:56:37.445Z,33.23
2019-05-30T19:59:03.167Z,33.33
2019-05-30T20:01:29.743Z,32.75
2019-05-30T20:03:56.025Z,32.25
2019-05-30T20:06:24.770Z,32.05
2019-05-30T20:08:55.433Z,32.05
2019-05-30T20:11:18.352Z,33.14
2019-05-30T20:13:44.519Z,33.32
2019-05-30T20:16:10.780Z,33.38
2019-05-30T20:18:37.684Z,35.09
2019-05-30T20:21:04.081Z,34.38
2019-05-30T20:23:30.280Z,35.20
2019-05-30T20:25:56.443Z,35.75
2019-05-30T20:28:22.608Z,34.75
2019-05-30T20:30:48.812Z,34.09
2019-05-30T20:33:14.975Z,34.15
2019-05-30T20:35:42.159Z,33.33
2019-05-30T20:38:09.259Z,35.79
2019-05-30T20:40:36.570Z,36.12
2019-05-30T20:43:03.288Z,37.85
2019-05-30T20:45:29.495Z,40.27
2019-05-30T20:47:55.747Z,42.48
2019-05-30T20:50:22.801Z,43.95
2019-05-30T20:52:49.002Z,45.16
2019-05-30T20:55:15.577Z,46.17
2019-05-30T20:57:42.569Z,47.87
2019-05-30T21:00:10.621Z,46.90
2019-05-30T21:02:36.947Z,47.31
2019-05-30T21:05:07.522Z,48.02
2019-05-30T21:07:35.747Z,47.93
2019-05-30T21:10:26.472Z,47.53
2019-05-30T21:12:53.461Z,47.89
2019-05-30T21:15:19.630Z,48.07
2019-05-30T21:17:46.194Z,48.07
2019-05-30T21:20:13.381Z,48.49
2019-05-30T21:22:40.189Z,47.99
2019-05-30T21:25:07.317Z,49.19
2019-05-30T21:27:33.541Z,49.49
2019-05-30T21:29:59.774Z,50.80
2019-05-30T21:32:25.943Z,50.32
2019-05-30T21:34:52.239Z,49.98
2019-05-30T21:37:18.791Z,49.46
2019-05-30T21:39:46.042Z,48.36
2019-05-30T21:42:12.457Z,49.95
2019-05-30T21:44:38.636Z,51.64
2019-05-30T21:47:04.783Z,53.65
2019-05-30T21:49:31.014Z,55.47
2019-05-30T21:51:57.275Z,56.45
2019-05-30T21:54:23.448Z,56.06
2019-05-30T21:56:50.294Z,56.10
2019-05-30T21:59:16.589Z,54.19
2019-05-30T22:01:42.760Z,56.11
2019-05-30T22:04:09.037Z,55.66
2019-05-30T22:06:35.219Z,56.86
2019-05-30T22:09:03.507Z,55.06
2019-05-30T22:11:29.477Z,54.82
2019-05-30T22:13:55.730Z,56.85
2019-05-30T22:16:22.003Z,56.72
2019-05-30T22:18:48.323Z,54.01
2019-05-30T22:21:14.490Z,56.04
2019-05-30T22:23:42.069Z,54.23
2019-05-30T22:26:08.465Z,56.51
2019-05-30T22:28:34.618Z,54.29
2019-05-30T22:31:00.799Z,55.60
2019-05-30T22:33:26.991Z,54.65
2019-05-30T22:35:53.349Z,54.10
2019-05-30T22:38:19.645Z,53.40
2019-05-30T22:40:45.939Z,51.90
2019-05-30T22:43:24.489Z,51.91
2019-05-30T22:45:40.176Z,52.41
2019-05-30T22:48:06.348Z,52.01
2019-05-30T22:50:33.418Z,52.67
2019-05-30T22:52:59.599Z,51.52
2019-05-30T22:55:25.788Z,51.16
2019-05-30T22:57:52.545Z,51.24
2019-05-30T23:00:18.926Z,51.46
2019-05-30T23:02:45.841Z,51.26
2019-05-30T23:05:12.207Z,51.54
2019-05-30T23:07:38.378Z,50.88
2019-05-30T23:10:04.982Z,49.71
2019-05-30T23:12:31.130Z,50.21
2019-05-30T23:14:57.304Z,49.65
2019-05-30T23:17:23.507Z,49.89
2019-05-30T23:19:51.351Z,50.17
2019-05-30T23:22:17.794Z,50.24
2019-05-30T23:24:43.980Z,50.10
2019-05-30T23:27:10.265Z,49.77
2019-05-30T23:29:36.897Z,49.67
2019-05-30T23:32:03.095Z,48.78
2019-05-30T23:34:29.238Z,51.73
2019-05-30T23:36:56.595Z,50.10
2019-05-30T23:39:23.098Z,49.81
2019-05-30T23:41:49.248Z,49.21
2019-05-30T23:44:15.422Z,50.49
2019-05-30T23:46:41.624Z,48.34
2019-05-30T23:49:07.778Z,48.08
2019-05-30T23:51:33.975Z,48.15
2019-05-30T23:54:00.526Z,47.14
2019-05-30T23:56:26.832Z,47.08
2019-05-30T23:58:53.004Z,46.80
